メインページ
METAR-TAF:

METAR-TAF

空港 :

イヴァト空港

アンタナナリボ, マダガスカル

緯度: 18-48S, 経度: 047-29E, 海抜: 1279m

現時点の気象観測

当レポートは16分前の21:00(UTC)に作成
の風 8kt
気温 12°C
湿度 88%
気圧 1027 hPa
視程10km以上
高度2000ftの雲はほとんどない

METAR: FMMI 192100Z 10008KT 9999 FEW020 12/10 Q1027 NOSIG

時間: 00:16 (21:16 UTC)

予報

当レポートは4時間16分前の17:00(UTC)に作成
予報は19日の 18時(UTC)から 20日の 24時(UTC)まで有効
南東の風 6kt
視程10km以上
高度1700ftの雲はほとんどない
高度2000ftの千切れ雲あり
確率 40% :
19日の 22時(UTC)から 20日の 04時(UTC)まで一時的に
視程: 4000m
霧雨, 雨
20日の 06時(UTC)から 20日の 08時(UTC)まで徐々に
東/南東の風 16kt
20日の 14時(UTC)から 20日の 16時(UTC)まで徐々に
南東の風 5kt
確率 40% :
20日の 18時(UTC)から 20日の 24時(UTC)まで一時的に
視程: 4000m
霧雨

TAF: FMMI 191700Z 1918/2024 14006KT 9999 FEW017 BKN020 PROB40 TEMPO 1922/2004 4000 DZRA BECMG 2006/2008 12016KT BECMG 2014/2016 14005KT PROB40 TEMPO 2018/2024 4000 DZ

4,000以上の空港の気象観測と天気予報(METAR報とTAF報)

利用可能な観測所は地図上に黄色い丸と赤い丸で示す。

丸の上にカーソルを重ねると観測所名を参照できる。

次にクリックすると気象観測と天気予報を参照できる。

マップの切り替え:黒色「×」印の緑ボタンをクリックして拡大、「-」印の緑ボタンをクリックして縮小、緑色の三角印をクリックして隣りの地図に切り替え


METAR-TAF: